Terrapin Island — KGDS — position and weather

sailwx.info

Track history (hours):
 
Tides and Currents Weather Stations Pressure Air Temp Water Temp Dewpoint Dewpoint Depression Visibility Wind Speed Wind Dir Waves Ship Positions

Terrapin Island

Owner: Great Lakes Dredge & Dock Company, LLC., Oak Brook, IL. More information available from US FCC via Universal Licensing System and Coast Guard Vessel Documentation Center.

Last reported at 2018-Jun-19 05:00 UTC. Time now 2018-Jun-20 16:47 UTC.
Position N 37°00' W 076°01'.

Length 106 m; draft 5.5 m.

Type: Dredging. MMSI: 366692000.

Date/timePositionNaut miles runAvg speedWind from/ knotsBaromVisibWave heightAir tempDewpointWater temp
2018-Jun-19 05:00N 37°00' W 076°01'0 0.0
2018-Jun-18 04:12N 36°60' W 076°01'0 1.6
2018-Jun-18 03:58N 37°00' W 076°01'1 1.5
2018-Jun-18 03:30N 37°01' W 076°02'  
2018-Jun-15 00:29N 36°57' W 076°20'3 6.2
2018-Jun-15 00:00N 36°54' W 076°20'3 5.4
2018-Jun-14 23:30N 36°51' W 076°19'2 3.7
2018-Jun-14 23:00N 36°50' W 076°17'0 0.1
2018-Jun-14 22:31N 36°50' W 076°17'1 0.4
2018-Jun-14 21:10N 36°50' W 076°16'0 0.0
2018-Jun-14 20:58N 36°50' W 076°16'0 0.0
2018-Jun-14 20:28N 36°50' W 076°16'0 0.0
2018-Jun-14 19:56N 36°50' W 076°16'0 0.0
2018-Jun-14 19:29N 36°50' W 076°16'0 0.0
2018-Jun-14 18:56N 36°50' W 076°16'0 0.0
2018-Jun-14 17:39N 36°50' W 076°16'0 0.0
2018-Jun-14 16:58N 36°50' W 076°16'0 0.0
2018-Jun-14 16:23N 36°50' W 076°16'0 0.0
2018-Jun-14 15:06N 36°50' W 076°16'0 0.1
2018-Jun-14 15:00N 36°50' W 076°16'0 0.0
2018-Jun-14 14:30N 36°50' W 076°16'0 0.0
2018-Jun-13 11:15N 36°50' W 076°16'0 0.0
2018-Jun-13 10:59N 36°50' W 076°16'0 0.0
2018-Jun-13 10:24N 36°50' W 076°16'0 0.0
2018-Jun-13 09:59N 36°50' W 076°16'0 0.0
2018-Jun-13 09:29N 36°50' W 076°16'0 0.0
2018-Jun-13 08:59N 36°50' W 076°16'0 0.0
2018-Jun-13 08:30N 36°50' W 076°16'0 0.0
2018-Jun-13 08:00N 36°50' W 076°16'0 0.0
2018-Jun-13 07:30N 36°50' W 076°16'0 0.0
2018-Jun-13 06:59N 36°50' W 076°16'0 0.0
2018-Jun-13 06:29N 36°50' W 076°16'0 0.0
2018-Jun-13 06:00N 36°50' W 076°16'0 0.0
2018-Jun-13 05:29N 36°50' W 076°16'0 0.0
2018-Jun-13 04:59N 36°50' W 076°16'0 0.0
2018-Jun-13 04:30N 36°50' W 076°16'0 0.0
2018-Jun-13 04:00N 36°50' W 076°16'0 0.0
2018-Jun-13 03:28N 36°50' W 076°16'0 0.0
2018-Jun-13 02:20N 36°50' W 076°16'0 0.0
2018-Jun-13 01:59N 36°50' W 076°16'0 0.0
2018-Jun-13 01:19N 36°50' W 076°16'0 0.0
2018-Jun-13 00:56N 36°50' W 076°16'0 0.0
2018-Jun-13 00:30N 36°50' W 076°16'0 0.0
2018-Jun-13 00:00N 36°50' W 076°16'0 0.0
2018-Jun-12 23:30N 36°50' W 076°16'0 0.0
2018-Jun-12 22:13N 36°50' W 076°16'0 0.0
2018-Jun-12 21:59N 36°50' W 076°16'0 0.0
2018-Jun-12 20:28N 36°50' W 076°16'0 0.0
2018-Jun-12 19:56N 36°50' W 076°16'0 0.0
2018-Jun-12 19:22N 36°50' W 076°16'0 0.0
2018-Jun-12 19:00N 36°50' W 076°16'0 0.0
2018-Jun-12 18:29N 36°50' W 076°16'0 0.0
2018-Jun-12 17:24N 36°50' W 076°16'0 0.0
2018-Jun-12 17:00N 36°50' W 076°16'0 0.0
2018-Jun-12 16:27N 36°50' W 076°16'0 0.0
2018-Jun-12 15:52N 36°50' W 076°16'0 0.0
2018-Jun-12 13:56N 36°50' W 076°16'0 0.0
2018-Jun-12 13:30N 36°50' W 076°16'0 0.0
2018-Jun-12 13:00N 36°50' W 076°16'0 0.0
2018-Jun-12 12:22N 36°50' W 076°16'0 0.0
2018-Jun-12 09:57N 36°50' W 076°16'0 0.0
2018-Jun-12 09:23N 36°50' W 076°16'0 0.0
2018-Jun-12 08:58N 36°50' W 076°16'0 0.0
2018-Jun-12 08:26N 36°50' W 076°16'0 0.0
2018-Jun-12 08:00N 36°50' W 076°16'0 0.0
2018-Jun-12 07:28N 36°50' W 076°16'0 0.0
2018-Jun-12 06:58N 36°50' W 076°16'0 0.0
2018-Jun-12 06:29N 36°50' W 076°16'0 0.0
2018-Jun-12 05:57N 36°50' W 076°16'0 0.0
2018-Jun-12 05:24N 36°50' W 076°16'0 0.0
2018-Jun-12 04:55N 36°50' W 076°16'0 0.0
2018-Jun-12 04:21N 36°50' W 076°16'0 0.0
2018-Jun-12 03:57N 36°50' W 076°16'0 0.0
2018-Jun-12 02:03N 36°50' W 076°16'0 0.0
2018-Jun-12 01:49N 36°50' W 076°16'0 0.0
2018-Jun-12 01:23N 36°50' W 076°16'0 0.0
2018-Jun-12 00:58N 36°50' W 076°16'0 0.0
2018-Jun-12 00:30N 36°50' W 076°16'0 0.0
2018-Jun-11 23:58N 36°50' W 076°16'0 0.0
2018-Jun-11 23:30N 36°50' W 076°16'0 0.0
2018-Jun-11 23:00N 36°50' W 076°16'0 0.0
2018-Jun-11 22:30N 36°50' W 076°16'0 0.0
2018-Jun-11 21:59N 36°50' W 076°16'0 0.0
2018-Jun-11 21:29N 36°50' W 076°16'0 0.0
2018-Jun-11 20:55N 36°50' W 076°16'0 0.0
2018-Jun-11 20:26N 36°50' W 076°16'0 0.0
2018-Jun-11 19:31N 36°50' W 076°16'0 0.1
2018-Jun-11 19:27N 36°50' W 076°16'0 0.0
2018-Jun-11 18:44N 36°50' W 076°16'0 0.0
2018-Jun-11 18:30N 36°50' W 076°16'0 0.0
2018-Jun-11 16:54N 36°50' W 076°16'0 0.0
2018-Jun-11 16:26N 36°50' W 076°16'0 0.0
2018-Jun-11 15:49N 36°50' W 076°16'0 0.0
2018-Jun-11 14:10N 36°50' W 076°16'0 0.0
2018-Jun-11 13:38N 36°50' W 076°16'0 0.0
2018-Jun-11 13:29N 36°50' W 076°16'0 0.0
2018-Jun-11 13:00N 36°50' W 076°16'0 0.0
2018-Jun-11 12:30N 36°50' W 076°16'0 0.0
2018-Jun-11 10:59N 36°50' W 076°16'0 0.0
2018-Jun-11 10:29N 36°50' W 076°16'0 0.0
2018-Jun-11 10:00N 36°50' W 076°16'0 0.0
2018-Jun-11 09:29N 36°50' W 076°16'0 0.0
2018-Jun-11 09:01N 36°50' W 076°16'0 0.0
2018-Jun-11 08:29N 36°50' W 076°16'1 2.8
2018-Jun-11 08:01N 36°51' W 076°18'2 3.7
2018-Jun-11 07:30N 36°52' W 076°19'  
Track history (hours):
 
Tides and Currents Weather Stations Pressure Air Temp Water Temp Dewpoint Dewpoint Depression Visibility Wind Speed Wind Dir Waves Ship Positions

Terrapin Island

Owner: Great Lakes Dredge & Dock Company, LLC., Oak Brook, IL. More information available from US FCC via Universal Licensing System and Coast Guard Vessel Documentation Center.

Last reported at 2018-Jun-19 05:00 UTC. Time now 2018-Jun-20 16:47 UTC.
Position N 37°00' W 076°01'.

Length 106 m; draft 5.5 m.

Type: Dredging. MMSI: 366692000.

Date/timePositionNaut miles runAvg speedWind from/ knotsBaromVisibWave heightAir tempDewpointWater temp
2018-Jun-19 05:00N 37°00' W 076°01'0 0.0
2018-Jun-18 04:12N 36°60' W 076°01'0 1.6
2018-Jun-18 03:58N 37°00' W 076°01'1 1.5
2018-Jun-18 03:30N 37°01' W 076°02'  
2018-Jun-15 00:29N 36°57' W 076°20'3 6.2
2018-Jun-15 00:00N 36°54' W 076°20'3 5.4
2018-Jun-14 23:30N 36°51' W 076°19'2 3.7
2018-Jun-14 23:00N 36°50' W 076°17'0 0.1
2018-Jun-14 22:31N 36°50' W 076°17'1 0.4
2018-Jun-14 21:10N 36°50' W 076°16'0 0.0
2018-Jun-14 20:58N 36°50' W 076°16'0 0.0
2018-Jun-14 20:28N 36°50' W 076°16'0 0.0
2018-Jun-14 19:56N 36°50' W 076°16'0 0.0
2018-Jun-14 19:29N 36°50' W 076°16'0 0.0
2018-Jun-14 18:56N 36°50' W 076°16'0 0.0
2018-Jun-14 17:39N 36°50' W 076°16'0 0.0
2018-Jun-14 16:58N 36°50' W 076°16'0 0.0
2018-Jun-14 16:23N 36°50' W 076°16'0 0.0
2018-Jun-14 15:06N 36°50' W 076°16'0 0.1
2018-Jun-14 15:00N 36°50' W 076°16'0 0.0
2018-Jun-14 14:30N 36°50' W 076°16'0 0.0
2018-Jun-13 11:15N 36°50' W 076°16'0 0.0
2018-Jun-13 10:59N 36°50' W 076°16'0 0.0
2018-Jun-13 10:24N 36°50' W 076°16'0 0.0
2018-Jun-13 09:59N 36°50' W 076°16'0 0.0
2018-Jun-13 09:29N 36°50' W 076°16'0 0.0
2018-Jun-13 08:59N 36°50' W 076°16'0 0.0
2018-Jun-13 08:30N 36°50' W 076°16'0 0.0
2018-Jun-13 08:00N 36°50' W 076°16'0 0.0
2018-Jun-13 07:30N 36°50' W 076°16'0 0.0
2018-Jun-13 06:59N 36°50' W 076°16'0 0.0
2018-Jun-13 06:29N 36°50' W 076°16'0 0.0
2018-Jun-13 06:00N 36°50' W 076°16'0 0.0
2018-Jun-13 05:29N 36°50' W 076°16'0 0.0
2018-Jun-13 04:59N 36°50' W 076°16'0 0.0
2018-Jun-13 04:30N 36°50' W 076°16'0 0.0
2018-Jun-13 04:00N 36°50' W 076°16'0 0.0
2018-Jun-13 03:28N 36°50' W 076°16'0 0.0
2018-Jun-13 02:20N 36°50' W 076°16'0 0.0
2018-Jun-13 01:59N 36°50' W 076°16'0 0.0
2018-Jun-13 01:19N 36°50' W 076°16'0 0.0
2018-Jun-13 00:56N 36°50' W 076°16'0 0.0
2018-Jun-13 00:30N 36°50' W 076°16'0 0.0
2018-Jun-13 00:00N 36°50' W 076°16'0 0.0
2018-Jun-12 23:30N 36°50' W 076°16'0 0.0
2018-Jun-12 22:13N 36°50' W 076°16'0 0.0
2018-Jun-12 21:59N 36°50' W 076°16'0 0.0
2018-Jun-12 20:28N 36°50' W 076°16'0 0.0
2018-Jun-12 19:56N 36°50' W 076°16'0 0.0
2018-Jun-12 19:22N 36°50' W 076°16'0 0.0
2018-Jun-12 19:00N 36°50' W 076°16'0 0.0
2018-Jun-12 18:29N 36°50' W 076°16'0 0.0
2018-Jun-12 17:24N 36°50' W 076°16'0 0.0
2018-Jun-12 17:00N 36°50' W 076°16'0 0.0
2018-Jun-12 16:27N 36°50' W 076°16'0 0.0
2018-Jun-12 15:52N 36°50' W 076°16'0 0.0
2018-Jun-12 13:56N 36°50' W 076°16'0 0.0
2018-Jun-12 13:30N 36°50' W 076°16'0 0.0
2018-Jun-12 13:00N 36°50' W 076°16'0 0.0
2018-Jun-12 12:22N 36°50' W 076°16'0 0.0
2018-Jun-12 09:57N 36°50' W 076°16'0 0.0
2018-Jun-12 09:23N 36°50' W 076°16'0 0.0
2018-Jun-12 08:58N 36°50' W 076°16'0 0.0
2018-Jun-12 08:26N 36°50' W 076°16'0 0.0
2018-Jun-12 08:00N 36°50' W 076°16'0 0.0
2018-Jun-12 07:28N 36°50' W 076°16'0 0.0
2018-Jun-12 06:58N 36°50' W 076°16'0 0.0
2018-Jun-12 06:29N 36°50' W 076°16'0 0.0
2018-Jun-12 05:57N 36°50' W 076°16'0 0.0
2018-Jun-12 05:24N 36°50' W 076°16'0 0.0
2018-Jun-12 04:55N 36°50' W 076°16'0 0.0
2018-Jun-12 04:21N 36°50' W 076°16'0 0.0
2018-Jun-12 03:57N 36°50' W 076°16'0 0.0
2018-Jun-12 02:03N 36°50' W 076°16'0 0.0
2018-Jun-12 01:49N 36°50' W 076°16'0 0.0
2018-Jun-12 01:23N 36°50' W 076°16'0 0.0
2018-Jun-12 00:58N 36°50' W 076°16'0 0.0
2018-Jun-12 00:30N 36°50' W 076°16'0 0.0
2018-Jun-11 23:58N 36°50' W 076°16'0 0.0
2018-Jun-11 23:30N 36°50' W 076°16'0 0.0
2018-Jun-11 23:00N 36°50' W 076°16'0 0.0
2018-Jun-11 22:30N 36°50' W 076°16'0 0.0
2018-Jun-11 21:59N 36°50' W 076°16'0 0.0
2018-Jun-11 21:29N 36°50' W 076°16'0 0.0
2018-Jun-11 20:55N 36°50' W 076°16'0 0.0
2018-Jun-11 20:26N 36°50' W 076°16'0 0.0
2018-Jun-11 19:31N 36°50' W 076°16'0 0.1
2018-Jun-11 19:27N 36°50' W 076°16'0 0.0
2018-Jun-11 18:44N 36°50' W 076°16'0 0.0
2018-Jun-11 18:30N 36°50' W 076°16'0 0.0
2018-Jun-11 16:54N 36°50' W 076°16'0 0.0
2018-Jun-11 16:26N 36°50' W 076°16'0 0.0
2018-Jun-11 15:49N 36°50' W 076°16'0 0.0
2018-Jun-11 14:10N 36°50' W 076°16'0 0.0
2018-Jun-11 13:38N 36°50' W 076°16'0 0.0
2018-Jun-11 13:29N 36°50' W 076°16'0 0.0
2018-Jun-11 13:00N 36°50' W 076°16'0 0.0
2018-Jun-11 12:30N 36°50' W 076°16'0 0.0
2018-Jun-11 10:59N 36°50' W 076°16'0 0.0
2018-Jun-11 10:29N 36°50' W 076°16'0 0.0
2018-Jun-11 10:00N 36°50' W 076°16'0 0.0
2018-Jun-11 09:29N 36°50' W 076°16'0 0.0
2018-Jun-11 09:01N 36°50' W 076°16'0 0.0
2018-Jun-11 08:29N 36°50' W 076°16'1 2.8
2018-Jun-11 08:01N 36°51' W 076°18'2 3.7
2018-Jun-11 07:30N 36°52' W 076°19'  

Dump ship's entire track history